Time;durP1;ratioP1;P1;durP2;ratioP2;P2;SDS_P1;SDS_P2;PMS_P1;PMS_P2;Temp;Humidity;BMP_temperature;BMP_pressure;BME280_temperature;BME280_humidity;BME280_pressure;Samples;Min_cycle;Max_cycle;Signal;HPM_P1;HPM_P2
2022/12/29 00:00:28;;;;;;;4.40;2.10;;;10.80;99.40;;;;;;4934173;29;20043;-83
2022/12/29 00:02:55;;;;;;;3.70;1.98;;;10.80;99.30;;;;;;4911652;29;20052;-85
2022/12/29 00:05:23;;;;;;;3.20;1.92;;;10.80;99.40;;;;;;4927897;29;20111;-85
2022/12/29 00:07:50;;;;;;;3.10;1.65;;;10.80;99.60;;;;;;4934118;29;20048;-85
2022/12/29 00:10:17;;;;;;;4.68;2.42;;;10.80;99.40;;;;;;4916098;29;20047;-84
2022/12/29 00:15:39;;;;;;;4.20;2.28;;;10.80;99.30;;;;;;4919113;29;20078;-84
2022/12/29 00:18:07;;;;;;;3.50;1.92;;;10.80;99.20;;;;;;4897271;29;20055;-84
2022/12/29 00:44:04;;;;;;;2.72;1.30;;;10.80;99.20;;;;;;4925724;29;20043;-85
2022/12/29 00:45:41;;;;;;;3.35;1.33;;;10.70;99.30;;;;;;4937669;29;20043;-84
2022/12/29 00:48:08;;;;;;;2.63;1.38;;;10.70;99.30;;;;;;4903892;29;20472;-85
2022/12/29 00:50:35;;;;;;;3.53;1.45;;;10.80;99.30;;;;;;4933813;29;20477;-84
2022/12/29 00:53:03;;;;;;;3.50;1.60;;;10.80;99.20;;;;;;4926598;29;20423;-84
2022/12/29 00:55:30;;;;;;;2.90;1.65;;;10.80;99.10;;;;;;4917870;29;20077;-84
2022/12/29 00:57:58;;;;;;;3.20;1.85;;;10.80;99.10;;;;;;4911610;29;20098;-85
2022/12/29 01:00:25;;;;;;;3.25;1.38;;;10.80;99.10;;;;;;4909985;29;20048;-84
2022/12/29 01:02:55;;;;;;;2.28;1.20;;;10.80;99.10;;;;;;4901521;29;20454;-84
2022/12/29 01:05:22;;;;;;;2.75;1.05;;;10.80;99.00;;;;;;4904640;29;20043;-84
2022/12/29 01:07:49;;;;;;;2.72;1.33;;;10.80;99.00;;;;;;4877775;29;20086;-84
2022/12/29 01:10:16;;;;;;;1.90;0.88;;;10.80;99.40;;;;;;4907567;29;20463;-84
2022/12/29 01:12:44;;;;;;;2.63;1.00;;;10.80;99.20;;;;;;4906298;29;20048;-85
2022/12/29 01:15:14;;;;;;;1.75;1.08;;;10.80;99.20;;;;;;4913737;29;20047;-85
2022/12/29 01:17:42;;;;;;;2.97;1.05;;;10.80;99.20;;;;;;4909586;29;20044;-84
2022/12/29 01:20:10;;;;;;;2.60;0.95;;;10.80;99.00;;;;;;4930450;29;20059;-85
2022/12/29 01:22:37;;;;;;;2.10;0.73;;;10.80;99.00;;;;;;4917291;29;20035;-84
2022/12/29 01:25:05;;;;;;;1.95;0.75;;;10.90;98.90;;;;;;4901859;29;20450;-84
2022/12/29 01:27:33;;;;;;;1.80;0.73;;;10.90;98.80;;;;;;4912645;29;20046;-86
2022/12/29 01:30:00;;;;;;;1.52;0.70;;;10.90;98.80;;;;;;4894383;29;20137;-84
2022/12/29 01:32:27;;;;;;;2.20;0.70;;;10.80;98.70;;;;;;4914736;29;20067;-84
2022/12/29 01:34:54;;;;;;;2.03;0.50;;;10.80;98.80;;;;;;4907347;29;20510;-84
2022/12/29 01:37:21;;;;;;;2.50;0.60;;;10.80;98.80;;;;;;4900247;29;20499;-84
2022/12/29 01:39:50;;;;;;;0.93;0.40;;;10.70;98.80;;;;;;4907297;29;20043;-85
2022/12/29 01:42:19;;;;;;;1.15;0.50;;;10.70;98.90;;;;;;4919896;29;20498;-85
2022/12/29 01:44:48;;;;;;;1.48;0.60;;;10.70;99.00;;;;;;4916089;29;20462;-85
2022/12/29 01:47:29;;;;;;;1.52;0.55;;;10.70;99.00;;;;;;4925041;29;20458;-84
2022/12/29 01:50:00;;;;;;;1.17;0.40;;;10.70;99.00;;;;;;4930350;29;20047;-84
2022/12/29 01:52:31;;;;;;;1.33;0.50;;;10.70;99.00;;;;;;4914934;29;20131;-85
2022/12/29 01:55:01;;;;;;;1.75;0.70;;;10.70;99.00;;;;;;4899914;29;20078;-84
2022/12/29 01:57:34;;;;;;;1.67;1.02;;;10.70;99.00;;;;;;4894802;29;20076;-84
2022/12/29 02:00:08;;;;;;;2.17;1.10;;;10.70;99.00;;;;;;4881471;29;20509;-85
2022/12/29 02:02:40;;;;;;;2.80;0.95;;;10.70;99.00;;;;;;4916585;29;20056;-84
2022/12/29 02:05:15;;;;;;;2.05;0.90;;;10.80;99.00;;;;;;4892870;29;20048;-84
2022/12/29 02:07:46;;;;;;;2.15;0.82;;;10.80;99.00;;;;;;4899226;29;20052;-85
2022/12/29 02:10:13;;;;;;;1.67;0.80;;;10.80;99.00;;;;;;4903135;29;20055;-85
2022/12/29 02:12:40;;;;;;;1.83;0.90;;;10.80;99.00;;;;;;4886942;29;20100;-85
2022/12/29 02:15:11;;;;;;;2.00;0.75;;;10.80;99.00;;;;;;4893228;29;20047;-84
2022/12/29 02:18:08;;;;;;;2.90;0.95;;;10.80;99.00;;;;;;4889647;29;20047;-85
2022/12/29 02:21:06;;;;;;;2.03;0.90;;;10.90;99.00;;;;;;4902846;29;20047;-84
2022/12/29 02:23:53;;;;;;;1.60;0.77;;;10.90;99.00;;;;;;4889256;29;20425;-84
2022/12/29 02:26:41;;;;;;;1.90;0.77;;;10.80;99.00;;;;;;4912416;29;20094;-84
2022/12/29 02:29:23;;;;;;;2.45;0.80;;;10.80;99.00;;;;;;4881628;29;20051;-85
2022/12/29 02:32:05;;;;;;;1.52;0.82;;;10.80;99.00;;;;;;4889777;29;20052;-84
2022/12/29 02:34:48;;;;;;;1.25;0.60;;;10.80;99.00;;;;;;4892729;29;20082;-84
2022/12/29 02:37:26;;;;;;;2.40;0.85;;;10.80;99.10;;;;;;4912918;29;20052;-84
2022/12/29 02:40:18;;;;;;;2.28;0.80;;;10.80;99.10;;;;;;4896740;29;20146;-83
2022/12/29 02:43:00;;;;;;;1.95;0.85;;;10.70;99.10;;;;;;4897720;29;20067;-84
2022/12/29 02:45:50;;;;;;;2.08;0.50;;;10.70;99.10;;;;;;4915906;29;20495;-86
2022/12/29 02:48:32;;;;;;;2.47;0.60;;;10.80;99.10;;;;;;4908260;29;20134;-88
2022/12/29 02:51:03;;;;;;;2.50;0.47;;;10.80;99.10;;;;;;4908748;29;20051;-88
2022/12/29 02:56:19;;;;;;;0.82;0.40;;;10.80;99.10;;;;;;4919327;29;20051;-85
2022/12/29 02:58:46;;;;;;;1.20;0.30;;;10.80;99.10;;;;;;4912104;29;20082;-85
2022/12/29 03:02:16;;;;;;;1.65;0.40;;;10.80;99.00;;;;;;4910305;29;20045;-85
2022/12/29 03:04:47;;;;;;;1.38;0.40;;;10.80;99.00;;;;;;4940164;29;20070;-85
2022/12/29 03:07:22;;;;;;;1.75;0.50;;;10.90;98.80;;;;;;4912694;29;20051;-87
2022/12/29 03:10:17;;;;;;;1.10;0.40;;;11.00;98.60;;;;;;4918260;29;20126;-87
2022/12/29 03:16:02;;;;;;;4.10;0.50;;;11.00;98.40;;;;;;4927704;29;20060;-87
2022/12/29 03:19:04;;;;;;;2.00;0.30;;;11.00;98.10;;;;;;4916861;29;20079;-89
2022/12/29 03:22:27;;;;;;;2.35;0.30;;;11.10;98.00;;;;;;4902980;29;20413;-88
2022/12/29 03:25:19;;;;;;;1.35;0.30;;;11.10;98.00;;;;;;4935113;29;20501;-88
2022/12/29 03:27:51;;;;;;;2.13;0.40;;;11.20;97.60;;;;;;4930250;29;20131;-88
2022/12/29 03:30:21;;;;;;;0.82;0.28;;;11.20;97.50;;;;;;4935275;29;20098;-88
2022/12/29 03:32:56;;;;;;;1.98;0.40;;;11.20;97.50;;;;;;4902910;29;20139;-88
2022/12/29 03:35:29;;;;;;;2.20;0.22;;;11.20;97.50;;;;;;4922691;29;20417;-88
2022/12/29 03:38:30;;;;;;;3.03;0.30;;;11.20;97.50;;;;;;4914400;29;20138;-87
2022/12/29 03:41:00;;;;;;;1.95;0.40;;;11.20;97.30;;;;;;4913969;29;20505;-88
2022/12/29 03:43:29;;;;;;;1.75;0.65;;;11.20;97.30;;;;;;4927399;29;20127;-88
2022/12/29 03:45:56;;;;;;;2.17;0.40;;;11.10;97.30;;;;;;4918456;29;20071;-87
2022/12/29 03:48:24;;;;;;;2.00;0.30;;;11.10;97.30;;;;;;4918655;29;20048;-86
2022/12/29 03:50:53;;;;;;;0.30;0.15;;;11.10;97.30;;;;;;4900724;29;20066;-87
2022/12/29 03:53:25;;;;;;;0.45;0.20;;;11.10;97.40;;;;;;4899078;29;20059;-86
2022/12/29 03:55:52;;;;;;;2.78;0.85;;;11.10;97.60;;;;;;4893384;29;20051;-87
2022/12/29 03:58:22;;;;;;;1.95;0.30;;;11.10;97.50;;;;;;4895417;29;20056;-87
2022/12/29 04:01:02;;;;;;;0.75;0.30;;;11.20;97.40;;;;;;4915750;29;20048;-86
2022/12/29 04:03:33;;;;;;;1.00;0.30;;;11.20;97.30;;;;;;4902638;29;20209;-86
2022/12/29 04:06:00;;;;;;;1.15;0.40;;;11.10;97.30;;;;;;4900282;29;20557;-87
2022/12/29 04:08:34;;;;;;;2.15;0.20;;;11.10;97.30;;;;;;4898449;29;20043;-86
2022/12/29 04:11:02;;;;;;;1.63;0.40;;;11.20;97.20;;;;;;4873615;29;20510;-87
2022/12/29 04:13:29;;;;;;;0.93;0.30;;;11.20;97.10;;;;;;4880250;29;20048;-86
2022/12/29 04:15:56;;;;;;;1.42;0.20;;;11.20;97.10;;;;;;4887842;29;20405;-84
2022/12/29 04:18:23;;;;;;;3.03;1.15;;;11.20;97.10;;;;;;4893875;29;20043;-83
2022/12/29 04:21:00;;;;;;;1.88;0.40;;;11.20;97.00;;;;;;4891641;29;20078;-84
2022/12/29 04:23:30;;;;;;;1.83;0.20;;;11.20;97.00;;;;;;4888078;29;20104;-83
2022/12/29 04:25:57;;;;;;;2.05;0.60;;;11.20;96.90;;;;;;4892234;29;20055;-83
2022/12/29 04:28:26;;;;;;;2.85;0.35;;;11.20;97.00;;;;;;4886287;29;20067;-83
2022/12/29 04:31:13;;;;;;;1.20;0.30;;;11.20;96.90;;;;;;4888517;29;20133;-84
2022/12/29 04:33:43;;;;;;;1.90;0.20;;;11.20;97.00;;;;;;4927029;29;20048;-84
2022/12/29 04:36:10;;;;;;;1.30;0.40;;;11.20;97.00;;;;;;4897138;29;20511;-84
2022/12/29 04:38:38;;;;;;;1.77;0.30;;;11.10;96.90;;;;;;4901304;29;20048;-84
2022/12/29 04:41:05;;;;;;;1.90;0.30;;;11.10;96.90;;;;;;4894256;29;20040;-83
2022/12/29 04:43:34;;;;;;;2.92;0.30;;;10.90;96.90;;;;;;4875193;29;20495;-84
2022/12/29 04:46:20;;;;;;;0.88;0.70;;;10.80;97.10;;;;;;4913683;29;20073;-84
2022/12/29 04:49:00;;;;;;;4.50;0.90;;;10.70;97.20;;;;;;4919702;29;20051;-83
2022/12/29 04:51:46;;;;;;;2.33;0.40;;;10.60;97.40;;;;;;4915780;29;20046;-84
2022/12/29 04:54:14;;;;;;;1.52;0.30;;;10.50;97.50;;;;;;4895265;29;20043;-84
2022/12/29 04:56:46;;;;;;;3.10;0.40;;;10.50;97.70;;;;;;4908433;29;20135;-84
2022/12/29 04:59:15;;;;;;;2.45;0.50;;;10.40;97.80;;;;;;4916688;29;20043;-84
2022/12/29 05:01:46;;;;;;;2.70;0.70;;;10.40;97.80;;;;;;4915244;29;20502;-84
2022/12/29 05:04:13;;;;;;;4.78;0.50;;;10.30;97.90;;;;;;4906302;29;20047;-85
2022/12/29 05:06:41;;;;;;;3.17;0.50;;;10.30;97.80;;;;;;4888272;29;20048;-84
2022/12/29 05:09:09;;;;;;;3.15;0.40;;;10.20;97.80;;;;;;4917751;29;20044;-84
2022/12/29 05:11:36;;;;;;;2.85;0.40;;;10.10;97.90;;;;;;4911993;29;20079;-88
2022/12/29 05:14:03;;;;;;;2.80;0.40;;;10.00;97.90;;;;;;4898705;29;20137;-89
2022/12/29 05:16:30;;;;;;;3.38;0.43;;;10.00;98.00;;;;;;4908096;29;20102;-88
2022/12/29 05:18:59;;;;;;;4.35;0.77;;;10.00;98.00;;;;;;4900216;29;20418;-89
2022/12/29 05:21:26;;;;;;;3.42;0.60;;;10.00;98.00;;;;;;4923928;29;20050;-89
2022/12/29 05:23:53;;;;;;;3.53;0.57;;;10.00;97.90;;;;;;4904169;29;20051;-89
2022/12/29 05:26:21;;;;;;;3.50;0.30;;;10.00;97.90;;;;;;4908027;29;20565;-89
2022/12/29 05:29:09;;;;;;;1.73;0.40;;;10.00;97.90;;;;;;4906808;29;20534;-84
2022/12/29 05:31:36;;;;;;;2.47;0.57;;;10.00;98.10;;;;;;4921565;29;20574;-89
2022/12/29 05:34:05;;;;;;;4.88;1.27;;;10.00;97.90;;;;;;4904598;29;20130;-89
2022/12/29 05:36:32;;;;;;;1.88;0.60;;;10.00;97.90;;;;;;4910523;29;20521;-89
2022/12/29 05:39:12;;;;;;;3.45;0.47;;;9.90;98.00;;;;;;4903274;29;20617;-89
2022/12/29 05:41:39;;;;;;;2.78;0.60;;;9.90;98.10;;;;;;4888977;29;20079;-89
2022/12/29 05:44:24;;;;;;;6.07;0.52;;;9.80;98.20;;;;;;4887177;29;20052;-88
2022/12/29 05:47:16;;;;;;;3.22;0.70;;;9.80;98.30;;;;;;4922478;29;20043;-88
2022/12/29 05:50:03;;;;;;;1.27;0.43;;;9.80;98.30;;;;;;4908477;29;20105;-89
2022/12/29 05:52:55;;;;;;;2.28;0.40;;;9.70;98.30;;;;;;4912437;29;20126;-89
2022/12/29 05:55:22;;;;;;;2.72;0.73;;;9.70;98.40;;;;;;4896548;29;20135;-89
2022/12/29 05:57:56;;;;;;;1.52;0.43;;;9.70;98.50;;;;;;4921707;29;20057;-89
2022/12/29 06:00:23;;;;;;;2.00;0.43;;;9.60;98.40;;;;;;4921156;29;20043;-89
2022/12/29 06:02:51;;;;;;;1.98;0.50;;;9.60;98.50;;;;;;4904685;29;20118;-89
2022/12/29 06:05:21;;;;;;;2.50;0.80;;;9.60;98.50;;;;;;4889486;29;20498;-89
2022/12/29 06:07:49;;;;;;;2.50;0.47;;;9.60;98.40;;;;;;4909324;29;20082;-89
2022/12/29 06:10:17;;;;;;;4.18;0.40;;;9.70;98.40;;;;;;4897510;29;20073;-87
2022/12/29 06:12:49;;;;;;;1.80;0.60;;;9.70;98.30;;;;;;4901106;29;20221;-88
2022/12/29 06:15:18;;;;;;;2.45;0.30;;;9.70;98.30;;;;;;4922078;29;20054;-89
2022/12/29 06:17:48;;;;;;;3.20;0.80;;;9.70;98.20;;;;;;4905774;29;20052;-87
2022/12/29 06:20:17;;;;;;;2.72;0.70;;;9.70;98.20;;;;;;4907083;29;20051;-88
2022/12/29 06:22:45;;;;;;;2.65;0.47;;;9.80;98.00;;;;;;4913315;29;20051;-88
2022/12/29 06:25:12;;;;;;;3.97;0.50;;;9.80;98.00;;;;;;4888878;29;20131;-88
2022/12/29 06:27:42;;;;;;;1.27;0.30;;;9.80;97.80;;;;;;4904136;29;20050;-88
2022/12/29 06:30:10;;;;;;;1.95;0.50;;;9.80;97.80;;;;;;4903450;29;20051;-89
2022/12/29 06:32:38;;;;;;;3.35;0.43;;;9.80;97.70;;;;;;4904290;29;20107;-88
2022/12/29 06:35:09;;;;;;;2.67;0.50;;;9.80;97.70;;;;;;4906589;29;20467;-88
2022/12/29 06:37:41;;;;;;;7.72;0.50;;;9.80;97.60;;;;;;4916340;29;20051;-88
2022/12/29 06:40:09;;;;;;;4.57;0.57;;;9.70;97.60;;;;;;4901367;29;20048;-89
2022/12/29 06:42:54;;;;;;;4.50;0.60;;;9.70;97.50;;;;;;4908702;29;20059;-88
2022/12/29 06:45:59;;;;;;;4.07;1.23;;;9.80;97.50;;;;;;4919360;29;20391;-84
2022/12/29 06:48:26;;;;;;;3.65;0.38;;;9.80;97.30;;;;;;4935344;29;20040;-84
2022/12/29 06:50:53;;;;;;;1.92;0.50;;;9.90;97.30;;;;;;4921324;29;20138;-84
2022/12/29 06:53:20;;;;;;;8.82;0.55;;;9.90;97.40;;;;;;4910010;29;20055;-84
2022/12/29 06:55:49;;;;;;;2.15;0.40;;;9.90;97.10;;;;;;4916600;29;20067;-86
2022/12/29 06:58:16;;;;;;;3.22;0.73;;;9.90;97.00;;;;;;4914201;29;20524;-85
2022/12/29 07:00:43;;;;;;;1.70;0.40;;;9.90;97.00;;;;;;4921220;29;20395;-84
2022/12/29 07:03:10;;;;;;;3.65;0.35;;;9.90;96.90;;;;;;4910978;29;20051;-85
2022/12/29 07:05:37;;;;;;;11.57;1.38;;;9.90;96.60;;;;;;4905092;29;20040;-84
2022/12/29 07:08:05;;;;;;;5.15;0.55;;;10.00;96.50;;;;;;4909740;29;20094;-85
2022/12/29 07:10:33;;;;;;;4.88;0.75;;;10.00;96.40;;;;;;4904535;29;20047;-85
2022/12/29 07:13:00;;;;;;;4.82;0.70;;;10.00;96.20;;;;;;4893063;29;20059;-85
2022/12/29 07:15:28;;;;;;;3.72;0.70;;;10.10;96.30;;;;;;4925733;29;20044;-85
2022/12/29 07:17:55;;;;;;;1.08;0.30;;;10.10;96.20;;;;;;4900351;29;20454;-85
2022/12/29 07:20:22;;;;;;;3.03;0.30;;;10.10;96.20;;;;;;4902746;29;20047;-85
2022/12/29 07:22:53;;;;;;;3.17;0.77;;;10.10;96.10;;;;;;4890819;29;20147;-85
2022/12/29 07:25:20;;;;;;;3.00;0.47;;;10.10;96.00;;;;;;4908258;29;20059;-84
2022/12/29 07:27:48;;;;;;;3.70;0.40;;;10.10;96.00;;;;;;4937313;29;20048;-84
2022/12/29 07:30:15;;;;;;;5.85;0.50;;;10.10;96.00;;;;;;4918664;29;20051;-86
2022/12/29 07:32:43;;;;;;;4.80;0.60;;;10.00;95.80;;;;;;4921767;29;20046;-84
2022/12/29 07:35:10;;;;;;;3.17;0.38;;;10.00;95.90;;;;;;4892355;29;20066;-83
2022/12/29 07:37:37;;;;;;;3.78;0.43;;;10.10;95.80;;;;;;4909366;29;20055;-84
2022/12/29 07:40:05;;;;;;;1.45;0.43;;;10.10;95.70;;;;;;4908459;29;20048;-84
2022/12/29 07:42:32;;;;;;;7.72;1.55;;;10.20;95.70;;;;;;4933569;29;20050;-83
2022/12/29 07:45:00;;;;;;;1.80;0.60;;;10.10;95.40;;;;;;4918419;29;20134;-85
2022/12/29 07:47:36;;;;;;;4.18;0.35;;;10.20;95.50;;;;;;4898776;29;20043;-84
2022/12/29 07:50:03;;;;;;;3.22;0.70;;;10.20;95.40;;;;;;4909061;29;20086;-84
2022/12/29 07:52:30;;;;;;;6.82;0.55;;;10.20;95.40;;;;;;4903341;29;20078;-84
2022/12/29 07:54:57;;;;;;;2.50;0.40;;;10.20;95.10;;;;;;4890248;29;20099;-84
2022/12/29 07:57:24;;;;;;;2.45;0.43;;;10.20;94.70;;;;;;4902839;29;20051;-85
2022/12/29 07:59:58;;;;;;;3.33;0.45;;;10.30;94.70;;;;;;4918714;29;20421;-84
2022/12/29 08:02:26;;;;;;;3.58;0.50;;;10.30;94.60;;;;;;4926843;29;20046;-83
2022/12/29 08:04:53;;;;;;;6.82;1.00;;;10.30;94.60;;;;;;4907902;29;20186;-83
2022/12/29 08:07:20;;;;;;;5.47;0.50;;;10.30;94.50;;;;;;4927007;29;20091;-83
2022/12/29 08:09:47;;;;;;;3.38;0.50;;;10.30;94.10;;;;;;4909279;29;20094;-82
2022/12/29 08:12:14;;;;;;;7.00;0.85;;;10.30;93.80;;;;;;4905870;29;20058;-83
2022/12/29 08:14:41;;;;;;;6.03;0.65;;;10.30;93.60;;;;;;4911201;29;20054;-84
2022/12/29 08:17:09;;;;;;;7.38;1.77;;;10.30;93.50;;;;;;4907594;29;20043;-85
2022/12/29 08:19:42;;;;;;;3.42;0.50;;;10.20;93.70;;;;;;4923900;29;20062;-85
2022/12/29 08:22:18;;;;;;;4.30;1.27;;;10.20;93.70;;;;;;4913438;29;20058;-84
2022/12/29 08:24:45;;;;;;;3.17;0.73;;;10.10;93.60;;;;;;4902632;29;20063;-83
2022/12/29 08:27:12;;;;;;;5.03;0.55;;;10.20;93.60;;;;;;4904815;29;20401;-84
2022/12/29 08:29:47;;;;;;;3.63;0.68;;;10.20;93.60;;;;;;4921641;29;20039;-84
2022/12/29 08:32:15;;;;;;;3.35;0.43;;;10.30;93.40;;;;;;4926375;29;20498;-84
2022/12/29 08:34:42;;;;;;;7.78;0.90;;;10.30;93.30;;;;;;4929792;29;20043;-84
2022/12/29 08:37:09;;;;;;;5.95;0.85;;;10.30;93.20;;;;;;4919391;29;20051;-84
2022/12/29 08:39:36;;;;;;;2.15;0.30;;;10.30;93.00;;;;;;4930854;29;20126;-84
2022/12/29 08:42:03;;;;;;;3.42;0.50;;;10.30;93.20;;;;;;4909149;29;20441;-85
2022/12/29 08:44:30;;;;;;;4.40;0.93;;;10.40;93.20;;;;;;4914739;29;20079;-84
2022/12/29 08:46:57;;;;;;;5.70;0.68;;;10.40;93.20;;;;;;4921832;29;20044;-84
2022/12/29 08:49:25;;;;;;;2.58;0.30;;;10.40;93.20;;;;;;4900704;29;20051;-84
2022/12/29 08:51:52;;;;;;;4.70;0.70;;;10.40;93.20;;;;;;4905685;29;20066;-84
2022/12/29 08:54:19;;;;;;;4.25;0.70;;;10.40;92.90;;;;;;4898815;29;20056;-84
2022/12/29 08:56:46;;;;;;;4.97;0.50;;;10.40;92.60;;;;;;4870139;29;20079;-84
2022/12/29 08:59:15;;;;;;;4.63;0.65;;;10.50;92.40;;;;;;4886293;29;20056;-84
2022/12/29 09:01:45;;;;;;;4.68;0.82;;;10.50;92.60;;;;;;4896143;29;20134;-84
2022/12/29 09:04:12;;;;;;;2.88;0.52;;;10.50;92.50;;;;;;4900924;29;20040;-83
2022/12/29 09:06:43;;;;;;;5.22;0.70;;;10.60;92.50;;;;;;4868233;29;20045;-84
2022/12/29 09:09:10;;;;;;;5.88;1.33;;;10.60;92.60;;;;;;4885573;29;20051;-83
2022/12/29 09:11:38;;;;;;;4.53;1.02;;;10.60;92.70;;;;;;4908723;29;20422;-84
2022/12/29 09:14:08;;;;;;;5.60;0.77;;;10.60;92.60;;;;;;4875599;29;20048;-85
2022/12/29 09:16:36;;;;;;;6.32;1.40;;;10.60;92.50;;;;;;4885636;29;20044;-83
2022/12/29 09:19:03;;;;;;;7.50;0.95;;;10.50;92.50;;;;;;4898373;29;20049;-84
2022/12/29 09:21:30;;;;;;;6.07;0.80;;;10.20;92.80;;;;;;4906159;29;20484;-84
2022/12/29 09:23:57;;;;;;;6.72;0.70;;;10.10;93.00;;;;;;4900223;29;20099;-85
2022/12/29 09:26:24;;;;;;;4.32;0.60;;;10.00;93.40;;;;;;4904016;29;20493;-84
2022/12/29 09:28:52;;;;;;;7.40;0.98;;;9.90;93.60;;;;;;4891296;29;20516;-84
2022/12/29 09:31:19;;;;;;;5.75;0.60;;;9.80;93.80;;;;;;4876502;29;20052;-83
2022/12/29 09:33:46;;;;;;;6.63;0.82;;;9.80;93.90;;;;;;4874541;29;20502;-84
2022/12/29 09:36:13;;;;;;;4.32;0.82;;;9.80;94.00;;;;;;4893160;29;20083;-83
2022/12/29 09:38:41;;;;;;;3.45;0.80;;;9.80;94.10;;;;;;4898119;29;20387;-84
2022/12/29 09:41:17;;;;;;;4.63;0.57;;;9.80;94.10;;;;;;4893509;29;20059;-84
2022/12/29 09:43:53;;;;;;;3.90;0.60;;;9.80;94.10;;;;;;4913071;29;21571;-84
2022/12/29 09:46:27;;;;;;;8.07;1.00;;;9.90;94.00;;;;;;4919578;29;20044;-85
2022/12/29 09:49:01;;;;;;;4.75;0.70;;;10.00;93.80;;;;;;4887379;29;20052;-85
2022/12/29 09:51:32;;;;;;;4.90;0.55;;;10.00;93.80;;;;;;4909214;29;20055;-85
2022/12/29 09:54:22;;;;;;;9.02;1.13;;;10.00;93.70;;;;;;4909243;29;20039;-84
2022/12/29 09:56:52;;;;;;;6.53;0.85;;;10.00;93.60;;;;;;4903205;29;20257;-84
2022/12/29 09:59:40;;;;;;;5.20;0.70;;;10.00;93.60;;;;;;4909018;29;20055;-84
2022/12/29 10:02:36;;;;;;;9.50;0.82;;;10.00;93.80;;;;;;4909258;29;20054;-84
2022/12/29 10:05:12;;;;;;;6.95;0.90;;;9.90;93.90;;;;;;4913771;29;20043;-84
2022/12/29 10:07:55;;;;;;;3.95;0.50;;;9.80;94.00;;;;;;4916732;29;20043;-84
2022/12/29 10:10:37;;;;;;;6.65;0.93;;;9.80;94.30;;;;;;4910357;29;20048;-85
2022/12/29 10:13:13;;;;;;;5.05;0.63;;;9.70;94.50;;;;;;4912464;29;20418;-85
2022/12/29 10:16:08;;;;;;;2.30;0.38;;;9.70;94.70;;;;;;4930770;29;20106;-85
2022/12/29 10:18:57;;;;;;;8.50;0.63;;;9.60;94.90;;;;;;4915866;29;20106;-85
2022/12/29 10:21:47;;;;;;;4.13;0.70;;;9.60;95.10;;;;;;4903863;29;20039;-85
2022/12/29 10:24:16;;;;;;;3.22;0.43;;;9.60;95.30;;;;;;4886505;29;20118;-86
2022/12/29 10:26:45;;;;;;;3.30;0.50;;;9.50;95.50;;;;;;4918792;29;20085;-85
2022/12/29 10:29:41;;;;;;;2.60;0.40;;;9.50;95.60;;;;;;4915608;29;20052;-85
2022/12/29 10:32:34;;;;;;;5.18;0.80;;;9.40;96.00;;;;;;4923262;29;20059;-88
2022/12/29 10:35:16;;;;;;;3.20;0.90;;;9.40;95.90;;;;;;4932998;29;20051;-88
2022/12/29 10:37:57;;;;;;;4.53;0.52;;;9.40;96.10;;;;;;4936458;29;20052;-85
2022/12/29 10:40:42;;;;;;;5.05;1.20;;;9.40;96.10;;;;;;4928377;29;20062;-85
2022/12/29 10:43:43;;;;;;;5.70;1.17;;;9.40;96.30;;;;;;4937614;29;20043;-85
2022/12/29 10:46:15;;;;;;;6.00;0.85;;;9.40;96.40;;;;;;4921608;29;20652;-85
2022/12/29 10:48:45;;;;;;;8.68;1.58;;;9.40;96.60;;;;;;4905486;29;20515;-86
2022/12/29 10:51:25;;;;;;;4.70;0.93;;;9.40;96.60;;;;;;4891169;29;20082;-85
2022/12/29 10:54:27;;;;;;;5.22;0.60;;;9.40;96.70;;;;;;4915453;29;20494;-84
2022/12/29 10:57:08;;;;;;;3.63;0.60;;;9.40;96.80;;;;;;4921405;29;20094;-85
2022/12/29 10:59:36;;;;;;;4.85;0.90;;;9.40;96.80;;;;;;4927508;29;20075;-85
2022/12/29 11:02:06;;;;;;;6.22;1.48;;;9.40;97.00;;;;;;4902757;29;20054;-85
2022/12/29 11:04:45;;;;;;;4.78;0.90;;;9.40;97.00;;;;;;4890867;29;20170;-84
2022/12/29 11:07:16;;;;;;;4.63;1.00;;;9.50;97.10;;;;;;4945349;29;20055;-85
2022/12/29 11:09:49;;;;;;;5.15;1.13;;;9.50;97.10;;;;;;4918664;29;20044;-84
2022/12/29 11:12:24;;;;;;;6.35;1.02;;;9.50;97.10;;;;;;4925768;29;20048;-88
2022/12/29 11:15:07;;;;;;;5.63;1.17;;;9.50;97.20;;;;;;4912767;29;20080;-88
2022/12/29 11:17:49;;;;;;;6.32;1.10;;;9.50;97.20;;;;;;4925752;29;20105;-88
2022/12/29 11:20:32;;;;;;;8.18;1.95;;;9.50;97.30;;;;;;4916898;29;20067;-88
2022/12/29 11:22:59;;;;;;;2.78;0.80;;;9.50;97.30;;;;;;4913586;29;20047;-89
2022/12/29 11:25:27;;;;;;;7.60;1.60;;;9.60;97.30;;;;;;4917020;29;20549;-90
2022/12/29 11:28:02;;;;;;;11.07;1.55;;;9.60;97.20;;;;;;4913119;29;20051;-90
2022/12/29 11:30:31;;;;;;;8.18;1.88;;;9.60;97.10;;;;;;4917817;29;20102;-88
2022/12/29 11:32:58;;;;;;;8.10;1.90;;;9.70;97.10;;;;;;4918193;29;20047;-87
2022/12/29 11:35:36;;;;;;;7.28;1.90;;;9.70;97.00;;;;;;4912169;29;20054;-89
2022/12/29 11:38:20;;;;;;;7.35;1.58;;;9.70;96.90;;;;;;4909823;29;20051;-91
2022/12/29 11:40:51;;;;;;;11.05;2.80;;;9.70;97.00;;;;;;4927054;29;20056;-92
2022/12/29 11:43:33;;;;;;;6.60;1.88;;;9.70;97.10;;;;;;4918130;29;20074;-92
2022/12/29 11:46:04;;;;;;;8.90;2.58;;;9.70;97.10;;;;;;4926701;29;20043;-92
2022/12/29 11:48:39;;;;;;;8.48;2.22;;;9.70;97.20;;;;;;4925741;29;20047;-86
2022/12/29 11:51:08;;;;;;;9.30;2.47;;;9.80;97.10;;;;;;4912631;29;20070;-87
2022/12/29 11:53:41;;;;;;;8.73;2.00;;;9.80;97.00;;;;;;4919094;29;20470;-88
2022/12/29 11:56:12;;;;;;;10.80;2.17;;;9.80;97.00;;;;;;4916221;29;20058;-88
2022/12/29 11:58:45;;;;;;;11.23;2.67;;;9.80;97.00;;;;;;4906099;29;20134;-87
2022/12/29 12:01:15;;;;;;;6.68;2.45;;;9.80;96.90;;;;;;4910780;29;20051;-87
2022/12/29 12:04:01;;;;;;;10.23;3.00;;;9.80;96.90;;;;;;4906060;29;20414;-92
2022/12/29 12:06:35;;;;;;;11.05;3.00;;;9.80;96.70;;;;;;4915665;29;20051;-85
2022/12/29 12:09:28;;;;;;;7.07;2.22;;;9.80;96.70;;;;;;4909852;29;20075;-87
2022/12/29 12:11:57;;;;;;;8.70;2.53;;;9.80;96.50;;;;;;4916191;29;20043;-86
2022/12/29 12:14:52;;;;;;;7.45;2.10;;;9.90;96.40;;;;;;4910693;29;20053;-88
2022/12/29 12:18:01;;;;;;;9.90;2.72;;;9.90;96.40;;;;;;4925100;29;20039;-86
2022/12/29 12:20:44;;;;;;;12.85;2.75;;;9.90;96.20;;;;;;4939584;29;20054;-84
2022/12/29 12:23:36;;;;;;;7.85;2.33;;;10.00;96.00;;;;;;4910801;29;20050;-83
2022/12/29 12:26:20;;;;;;;9.70;2.38;;;10.00;96.00;;;;;;4913119;29;20047;-84
2022/12/29 12:29:09;;;;;;;14.75;2.42;;;10.00;95.70;;;;;;4923605;29;20047;-85
2022/12/29 12:31:54;;;;;;;8.27;2.45;;;10.10;95.30;;;;;;4929260;29;20413;-84
2022/12/29 12:34:32;;;;;;;9.85;2.13;;;10.10;95.30;;;;;;4907415;29;20056;-84
2022/12/29 12:37:15;;;;;;;9.02;2.50;;;10.20;95.20;;;;;;4936231;29;20050;-84
2022/12/29 12:39:42;;;;;;;;;;;10.20;94.90;;;;;;4912878;29;20055;-84
2022/12/29 12:42:46;;;;;;;11.65;2.90;;;10.30;94.60;;;;;;4921172;29;19977;-83
2022/12/29 12:45:39;;;;;;;7.93;2.85;;;10.30;94.40;;;;;;4928814;29;20043;-84
2022/12/29 12:48:46;;;;;;;7.60;2.60;;;10.30;94.30;;;;;;4914469;29;20046;-84
2022/12/29 12:51:52;;;;;;;13.07;3.17;;;10.30;94.30;;;;;;4923416;29;20498;-83
2022/12/29 12:54:46;;;;;;;12.77;3.28;;;10.50;94.30;;;;;;4885339;29;20050;-82
2022/12/29 12:57:35;;;;;;;10.60;2.72;;;10.50;94.00;;;;;;4913447;29;20509;-83
2022/12/29 13:00:07;;;;;;;7.40;2.05;;;10.50;93.90;;;;;;4914555;29;20383;-83
2022/12/29 13:02:54;;;;;;;9.43;2.17;;;10.50;94.00;;;;;;4909942;29;20118;-85
2022/12/29 13:05:36;;;;;;;7.00;2.60;;;10.50;93.80;;;;;;4926525;29;20068;-84
2022/12/29 13:08:42;;;;;;;8.25;2.42;;;10.50;93.80;;;;;;4914970;29;20122;-85
2022/12/29 13:11:43;;;;;;;8.80;2.35;;;10.50;93.90;;;;;;4905464;29;20052;-85
2022/12/29 13:14:29;;;;;;;9.13;2.40;;;10.50;93.80;;;;;;4901162;29;20044;-83
2022/12/29 13:17:08;;;;;;;10.18;2.88;;;10.50;93.90;;;;;;4919941;29;20474;-86
2022/12/29 13:19:52;;;;;;;12.02;2.28;;;10.50;93.90;;;;;;4917049;29;20553;-83
2022/12/29 13:22:52;;;;;;;9.95;2.88;;;10.50;93.80;;;;;;4919344;29;20051;-83
2022/12/29 13:25:54;;;;;;;10.45;2.10;;;10.50;93.90;;;;;;4932121;29;20039;-84
2022/12/29 13:28:47;;;;;;;10.00;1.50;;;10.40;93.90;;;;;;4853587;29;20079;-84
2022/12/29 13:31:20;;;;;;;7.03;1.90;;;10.40;94.00;;;;;;4915048;29;20088;-84
2022/12/29 13:34:28;;;;;;;8.57;2.63;;;10.40;93.90;;;;;;4938131;29;20059;-84
2022/12/29 13:37:18;;;;;;;11.48;2.13;;;10.40;94.00;;;;;;4909226;29;20043;-84
2022/12/29 13:39:52;;;;;;;8.45;2.20;;;10.40;94.00;;;;;;4911139;29;20107;-84
2022/12/29 13:42:21;;;;;;;9.70;1.60;;;10.20;94.10;;;;;;4942981;29;20047;-84
2022/12/29 13:45:06;;;;;;;8.27;2.05;;;10.20;94.20;;;;;;4930350;29;20466;-84
2022/12/29 13:47:59;;;;;;;8.05;2.22;;;10.20;94.30;;;;;;4906059;29;20103;-84
2022/12/29 13:50:29;;;;;;;7.10;1.52;;;10.20;94.20;;;;;;4918593;29;20039;-82
2022/12/29 13:53:25;;;;;;;7.18;1.60;;;10.30;94.00;;;;;;4914143;29;20487;-86
2022/12/29 13:56:12;;;;;;;9.52;1.70;;;10.30;93.80;;;;;;4930967;29;20422;-83
2022/12/29 13:59:03;;;;;;;8.60;1.75;;;10.30;93.70;;;;;;4902366;29;20103;-83
2022/12/29 14:01:36;;;;;;;10.27;1.98;;;10.40;93.60;;;;;;4919873;29;20098;-83